sensor_id;sensor_type;location;lat;lon;timestamp;pressure;altitude;pressure_sealevel;temperature;humidity
42169;BME280;27838;43.858;25.974;2023-12-28T00:01:48;102270.47;;;12.49;44.84
42169;BME280;27838;43.858;25.974;2023-12-28T00:04:16;102275.53;;;12.38;45.16
42169;BME280;27838;43.858;25.974;2023-12-28T00:06:44;102276.19;;;12.26;45.18
42169;BME280;27838;43.858;25.974;2023-12-28T00:09:10;102269.06;;;12.16;45.31
42169;BME280;27838;43.858;25.974;2023-12-28T00:11:37;102262.03;;;12.14;45.22
42169;BME280;27838;43.858;25.974;2023-12-28T00:14:04;102268.13;;;12.14;45.69
42169;BME280;27838;43.858;25.974;2023-12-28T00:16:31;102274.16;;;12.10;45.42
42169;BME280;27838;43.858;25.974;2023-12-28T00:18:58;102270.59;;;12.05;45.72
42169;BME280;27838;43.858;25.974;2023-12-28T00:21:25;102270.56;;;12.03;45.62
42169;BME280;27838;43.858;25.974;2023-12-28T00:23:51;102268.69;;;11.96;45.75
42169;BME280;27838;43.858;25.974;2023-12-28T00:26:18;102272.97;;;11.93;46.07
42169;BME280;27838;43.858;25.974;2023-12-28T00:28:47;102274.75;;;11.94;45.79
42169;BME280;27838;43.858;25.974;2023-12-28T00:31:13;102273.78;;;11.90;45.84
42169;BME280;27838;43.858;25.974;2023-12-28T00:33:40;102271.13;;;11.88;45.77
42169;BME280;27838;43.858;25.974;2023-12-28T00:36:07;102257.88;;;11.79;45.68
42169;BME280;27838;43.858;25.974;2023-12-28T00:38:34;102282.28;;;11.80;45.95
42169;BME280;27838;43.858;25.974;2023-12-28T00:41:00;102271.56;;;11.66;45.98
42169;BME280;27838;43.858;25.974;2023-12-28T00:43:27;102288.22;;;11.74;46.19
42169;BME280;27838;43.858;25.974;2023-12-28T00:45:53;102291.66;;;11.70;46.55
42169;BME280;27838;43.858;25.974;2023-12-28T00:48:20;102296.81;;;11.67;46.51
42169;BME280;27838;43.858;25.974;2023-12-28T00:50:46;102295.09;;;11.67;46.60
42169;BME280;27838;43.858;25.974;2023-12-28T00:53:13;102295.25;;;11.75;46.04
42169;BME280;27838;43.858;25.974;2023-12-28T00:55:40;102283.00;;;11.73;46.11
42169;BME280;27838;43.858;25.974;2023-12-28T00:58:06;102296.19;;;11.79;46.40
42169;BME280;27838;43.858;25.974;2023-12-28T01:00:33;102304.88;;;11.79;46.30
42169;BME280;27838;43.858;25.974;2023-12-28T01:02:59;102300.59;;;11.81;46.29
42169;BME280;27838;43.858;25.974;2023-12-28T01:05:26;102301.28;;;11.73;46.27
42169;BME280;27838;43.858;25.974;2023-12-28T01:07:53;102296.03;;;11.71;46.38
42169;BME280;27838;43.858;25.974;2023-12-28T01:10:21;102291.72;;;11.73;46.71
42169;BME280;27838;43.858;25.974;2023-12-28T01:12:47;102298.75;;;11.77;45.97
42169;BME280;27838;43.858;25.974;2023-12-28T01:15:14;102297.75;;;11.69;46.47
42169;BME280;27838;43.858;25.974;2023-12-28T01:17:42;102294.09;;;11.61;46.52
42169;BME280;27838;43.858;25.974;2023-12-28T01:20:09;102289.69;;;11.60;46.61
42169;BME280;27838;43.858;25.974;2023-12-28T01:22:36;102290.59;;;11.60;46.43
42169;BME280;27838;43.858;25.974;2023-12-28T01:25:03;102293.09;;;11.56;46.74
42169;BME280;27838;43.858;25.974;2023-12-28T01:27:29;102298.13;;;11.46;46.71
42169;BME280;27838;43.858;25.974;2023-12-28T01:29:56;102291.06;;;11.42;46.80
42169;BME280;27838;43.858;25.974;2023-12-28T01:32:22;102289.22;;;11.37;47.14
42169;BME280;27838;43.858;25.974;2023-12-28T01:34:49;102290.16;;;11.40;46.86
42169;BME280;27838;43.858;25.974;2023-12-28T01:37:15;102288.34;;;11.36;46.55
42169;BME280;27838;43.858;25.974;2023-12-28T01:39:42;102296.09;;;11.33;47.02
42169;BME280;27838;43.858;25.974;2023-12-28T01:42:09;102282.03;;;11.26;46.81
42169;BME280;27838;43.858;25.974;2023-12-28T01:44:35;102280.28;;;11.27;47.20
42169;BME280;27838;43.858;25.974;2023-12-28T01:47:02;102285.50;;;11.27;47.35
42169;BME280;27838;43.858;25.974;2023-12-28T01:49:29;102280.28;;;11.25;47.63
42169;BME280;27838;43.858;25.974;2023-12-28T01:51:55;102276.75;;;11.25;47.33
42169;BME280;27838;43.858;25.974;2023-12-28T01:54:21;102275.78;;;11.20;47.19
42169;BME280;27838;43.858;25.974;2023-12-28T01:56:48;102280.91;;;11.15;47.48
42169;BME280;27838;43.858;25.974;2023-12-28T01:59:15;102274.88;;;11.18;47.32
42169;BME280;27838;43.858;25.974;2023-12-28T02:01:44;102271.34;;;11.15;47.07
42169;BME280;27838;43.858;25.974;2023-12-28T02:04:11;102269.56;;;11.14;47.49
42169;BME280;27838;43.858;25.974;2023-12-28T02:06:38;102283.56;;;11.17;47.43
42169;BME280;27838;43.858;25.974;2023-12-28T02:09:04;102286.19;;;11.17;47.26
42169;BME280;27838;43.858;25.974;2023-12-28T02:11:31;102286.94;;;11.12;47.21
42169;BME280;27838;43.858;25.974;2023-12-28T02:13:58;102280.06;;;11.16;47.06
42169;BME280;27838;43.858;25.974;2023-12-28T02:16:35;102275.75;;;11.17;46.92
42169;BME280;27838;43.858;25.974;2023-12-28T02:19:16;102265.19;;;11.12;46.86
42169;BME280;27838;43.858;25.974;2023-12-28T02:21:45;102270.31;;;11.09;46.92
42169;BME280;27838;43.858;25.974;2023-12-28T02:24:12;102267.59;;;11.04;47.24
42169;BME280;27838;43.858;25.974;2023-12-28T02:26:38;102264.00;;;10.98;47.89
42169;BME280;27838;43.858;25.974;2023-12-28T02:29:05;102270.88;;;10.94;47.86
42169;BME280;27838;43.858;25.974;2023-12-28T02:31:46;102262.06;;;10.89;48.24
42169;BME280;27838;43.858;25.974;2023-12-28T02:34:22;102267.19;;;10.86;47.71
42169;BME280;27838;43.858;25.974;2023-12-28T02:36:51;102259.22;;;10.80;47.44
42169;BME280;27838;43.858;25.974;2023-12-28T02:39:20;102260.25;;;10.86;47.28
42169;BME280;27838;43.858;25.974;2023-12-28T02:41:48;102257.59;;;10.85;47.43
42169;BME280;27838;43.858;25.974;2023-12-28T02:44:14;102253.09;;;10.77;47.61
42169;BME280;27838;43.858;25.974;2023-12-28T02:46:41;102236.31;;;10.66;47.32
42169;BME280;27838;43.858;25.974;2023-12-28T02:49:07;102261.56;;;10.69;47.63
42169;BME280;27838;43.858;25.974;2023-12-28T02:51:37;102262.38;;;10.66;47.78
42169;BME280;27838;43.858;25.974;2023-12-28T02:54:03;102259.78;;;10.66;47.67
42169;BME280;27838;43.858;25.974;2023-12-28T02:56:30;102258.00;;;10.65;47.60
42169;BME280;27838;43.858;25.974;2023-12-28T02:58:57;102242.22;;;10.59;47.56
42169;BME280;27838;43.858;25.974;2023-12-28T03:01:24;102269.34;;;10.67;47.78
42169;BME280;27838;43.858;25.974;2023-12-28T03:03:51;102267.66;;;10.68;47.92
42169;BME280;27838;43.858;25.974;2023-12-28T03:06:17;102269.34;;;10.67;48.14
42169;BME280;27838;43.858;25.974;2023-12-28T03:08:44;102267.59;;;10.66;48.04
42169;BME280;27838;43.858;25.974;2023-12-28T03:11:10;102266.69;;;10.66;47.85
42169;BME280;27838;43.858;25.974;2023-12-28T03:13:37;102254.31;;;10.57;47.89
42169;BME280;27838;43.858;25.974;2023-12-28T03:16:04;102261.28;;;10.56;48.15
42169;BME280;27838;43.858;25.974;2023-12-28T03:18:30;102263.84;;;10.55;48.74
42169;BME280;27838;43.858;25.974;2023-12-28T03:20:57;102262.91;;;10.53;48.85
42169;BME280;27838;43.858;25.974;2023-12-28T03:23:24;102247.03;;;10.42;48.52
42169;BME280;27838;43.858;25.974;2023-12-28T03:25:50;102255.78;;;10.46;48.63
42169;BME280;27838;43.858;25.974;2023-12-28T03:28:17;102240.00;;;10.39;49.12
42169;BME280;27838;43.858;25.974;2023-12-28T03:30:43;102247.81;;;10.39;49.34
42169;BME280;27838;43.858;25.974;2023-12-28T03:33:10;102253.63;;;10.29;49.59
42169;BME280;27838;43.858;25.974;2023-12-28T03:35:36;102253.50;;;10.25;50.18
42169;BME280;27838;43.858;25.974;2023-12-28T03:38:03;102262.44;;;10.33;50.75
42169;BME280;27838;43.858;25.974;2023-12-28T03:40:29;102270.22;;;10.31;50.77
42169;BME280;27838;43.858;25.974;2023-12-28T03:42:56;102278.03;;;10.31;50.78
42169;BME280;27838;43.858;25.974;2023-12-28T03:45:22;102273.72;;;10.33;51.02
42169;BME280;27838;43.858;25.974;2023-12-28T03:47:49;102282.44;;;10.34;51.49
42169;BME280;27838;43.858;25.974;2023-12-28T03:50:16;102276.34;;;10.33;51.50
42169;BME280;27838;43.858;25.974;2023-12-28T03:52:42;102288.47;;;10.31;51.62
42169;BME280;27838;43.858;25.974;2023-12-28T03:55:09;102280.50;;;10.28;52.05
42169;BME280;27838;43.858;25.974;2023-12-28T03:57:36;102291.63;;;10.21;50.87
42169;BME280;27838;43.858;25.974;2023-12-28T04:00:02;102284.34;;;10.09;50.27
42169;BME280;27838;43.858;25.974;2023-12-28T04:02:29;102279.00;;;10.05;50.13
42169;BME280;27838;43.858;25.974;2023-12-28T04:04:57;102284.16;;;10.01;50.79
42169;BME280;27838;43.858;25.974;2023-12-28T04:07:24;102280.50;;;9.95;50.54
42169;BME280;27838;43.858;25.974;2023-12-28T04:09:50;102285.47;;;9.86;50.33
42169;BME280;27838;43.858;25.974;2023-12-28T04:12:17;102279.97;;;9.76;50.52
42169;BME280;27838;43.858;25.974;2023-12-28T04:14:43;102278.13;;;9.72;50.63
42169;BME280;27838;43.858;25.974;2023-12-28T04:17:10;102283.34;;;9.72;51.40
42169;BME280;27838;43.858;25.974;2023-12-28T04:19:37;102288.59;;;9.74;51.46
42169;BME280;27838;43.858;25.974;2023-12-28T04:22:03;102292.78;;;9.69;51.69
42169;BME280;27838;43.858;25.974;2023-12-28T04:24:30;102295.19;;;9.62;51.50
42169;BME280;27838;43.858;25.974;2023-12-28T04:26:56;102307.13;;;9.54;51.89
42169;BME280;27838;43.858;25.974;2023-12-28T04:29:23;102300.97;;;9.52;51.24
42169;BME280;27838;43.858;25.974;2023-12-28T04:31:49;102298.47;;;9.55;51.19
42169;BME280;27838;43.858;25.974;2023-12-28T04:34:16;102300.25;;;9.56;51.33
42169;BME280;27838;43.858;25.974;2023-12-28T04:36:42;102307.28;;;9.60;51.39
42169;BME280;27838;43.858;25.974;2023-12-28T04:39:09;102312.59;;;9.63;51.54
42169;BME280;27838;43.858;25.974;2023-12-28T04:41:36;102304.75;;;9.62;51.79
42169;BME280;27838;43.858;25.974;2023-12-28T04:44:03;102292.53;;;9.59;51.49
42169;BME280;27838;43.858;25.974;2023-12-28T04:46:29;102284.56;;;9.55;51.74
42169;BME280;27838;43.858;25.974;2023-12-28T04:48:56;102279.22;;;9.50;51.85
42169;BME280;27838;43.858;25.974;2023-12-28T04:51:22;102276.66;;;9.52;51.63
42169;BME280;27838;43.858;25.974;2023-12-28T04:53:49;102287.88;;;9.49;51.59
42169;BME280;27838;43.858;25.974;2023-12-28T04:56:19;102282.69;;;9.49;51.29
42169;BME280;27838;43.858;25.974;2023-12-28T04:58:45;102275.78;;;9.51;51.01
42169;BME280;27838;43.858;25.974;2023-12-28T05:01:12;102282.69;;;9.49;51.55
42169;BME280;27838;43.858;25.974;2023-12-28T05:03:38;102279.94;;;9.44;51.08
42169;BME280;27838;43.858;25.974;2023-12-28T05:06:05;102287.53;;;9.37;51.70
42169;BME280;27838;43.858;25.974;2023-12-28T05:08:31;102280.41;;;9.31;51.61
42169;BME280;27838;43.858;25.974;2023-12-28T05:10:58;102287.22;;;9.27;51.74
42169;BME280;27838;43.858;25.974;2023-12-28T05:13:24;102288.81;;;9.22;51.66
42169;BME280;27838;43.858;25.974;2023-12-28T05:15:51;102279.19;;;9.20;51.46
42169;BME280;27838;43.858;25.974;2023-12-28T05:18:17;102280.97;;;9.21;51.52
42169;BME280;27838;43.858;25.974;2023-12-28T05:20:44;102274.97;;;9.23;51.49
42169;BME280;27838;43.858;25.974;2023-12-28T05:23:10;102263.81;;;9.27;51.75
42169;BME280;27838;43.858;25.974;2023-12-28T05:25:37;102270.75;;;9.27;51.99
42169;BME280;27838;43.858;25.974;2023-12-28T05:28:04;102263.13;;;9.33;51.85
42169;BME280;27838;43.858;25.974;2023-12-28T05:30:30;102262.31;;;9.36;51.62
42169;BME280;27838;43.858;25.974;2023-12-28T05:32:57;102260.44;;;9.30;52.12
42169;BME280;27838;43.858;25.974;2023-12-28T05:35:23;102271.81;;;9.34;51.56
42169;BME280;27838;43.858;25.974;2023-12-28T05:37:50;102265.75;;;9.33;51.31
42169;BME280;27838;43.858;25.974;2023-12-28T05:40:16;102258.72;;;9.31;51.16
42169;BME280;27838;43.858;25.974;2023-12-28T05:42:43;102266.72;;;9.37;51.02
42169;BME280;27838;43.858;25.974;2023-12-28T05:45:10;102270.94;;;9.33;50.91
42169;BME280;27838;43.858;25.974;2023-12-28T05:47:36;102275.19;;;9.30;51.18
42169;BME280;27838;43.858;25.974;2023-12-28T05:50:03;102274.31;;;9.31;51.32
42169;BME280;27838;43.858;25.974;2023-12-28T05:52:31;102270.03;;;9.33;51.40
42169;BME280;27838;43.858;25.974;2023-12-28T05:54:57;102249.31;;;9.36;51.40
42169;BME280;27838;43.858;25.974;2023-12-28T05:57:24;102260.78;;;9.42;51.27
42169;BME280;27838;43.858;25.974;2023-12-28T05:59:52;102253.97;;;9.46;51.26
42169;BME280;27838;43.858;25.974;2023-12-28T06:02:18;102254.06;;;9.49;51.22
42169;BME280;27838;43.858;25.974;2023-12-28T06:04:45;102248.91;;;9.52;51.60
42169;BME280;27838;43.858;25.974;2023-12-28T06:07:12;102255.13;;;9.56;51.54
42169;BME280;27838;43.858;25.974;2023-12-28T06:09:38;102262.06;;;9.57;51.43
42169;BME280;27838;43.858;25.974;2023-12-28T06:12:05;102262.03;;;9.55;51.21
42169;BME280;27838;43.858;25.974;2023-12-28T06:14:32;102262.03;;;9.55;51.63
42169;BME280;27838;43.858;25.974;2023-12-28T06:16:59;102254.25;;;9.57;51.31
42169;BME280;27838;43.858;25.974;2023-12-28T06:19:25;102258.59;;;9.56;51.02
42169;BME280;27838;43.858;25.974;2023-12-28T06:21:52;102251.59;;;9.55;50.67
42169;BME280;27838;43.858;25.974;2023-12-28T06:24:19;102258.50;;;9.53;50.86
42169;BME280;27838;43.858;25.974;2023-12-28T06:26:45;102259.25;;;9.49;50.77
42169;BME280;27838;43.858;25.974;2023-12-28T06:29:12;102257.53;;;9.50;51.14
42169;BME280;27838;43.858;25.974;2023-12-28T06:31:38;102255.13;;;9.56;51.33
42169;BME280;27838;43.858;25.974;2023-12-28T06:34:06;102256.09;;;9.61;51.04
42169;BME280;27838;43.858;25.974;2023-12-28T06:36:33;102258.84;;;9.66;51.19
42169;BME280;27838;43.858;25.974;2023-12-28T06:38:59;102262.47;;;9.71;50.86
42169;BME280;27838;43.858;25.974;2023-12-28T06:41:26;102260.81;;;9.74;51.00
42169;BME280;27838;43.858;25.974;2023-12-28T06:43:53;102256.53;;;9.76;51.36
42169;BME280;27838;43.858;25.974;2023-12-28T06:46:19;102252.28;;;9.80;51.21
42169;BME280;27838;43.858;25.974;2023-12-28T06:48:46;102256.72;;;9.82;50.89
42169;BME280;27838;43.858;25.974;2023-12-28T06:51:20;102256.78;;;9.84;51.19
42169;BME280;27838;43.858;25.974;2023-12-28T06:53:47;102248.88;;;9.81;50.86
42169;BME280;27838;43.858;25.974;2023-12-28T06:56:15;102249.69;;;9.80;51.33
42169;BME280;27838;43.858;25.974;2023-12-28T06:58:42;102254.16;;;9.84;51.52
42169;BME280;27838;43.858;25.974;2023-12-28T07:01:08;102261.22;;;9.88;51.09
42169;BME280;27838;43.858;25.974;2023-12-28T07:03:36;102263.03;;;9.92;51.47
42169;BME280;27838;43.858;25.974;2023-12-28T07:06:02;102266.66;;;9.97;51.62
42169;BME280;27838;43.858;25.974;2023-12-28T07:08:30;102262.50;;;10.04;51.35
42169;BME280;27838;43.858;25.974;2023-12-28T07:10:56;102266.13;;;10.09;51.41
42169;BME280;27838;43.858;25.974;2023-12-28T07:13:23;102275.91;;;10.18;51.19
42169;BME280;27838;43.858;25.974;2023-12-28T07:15:50;102264.56;;;10.16;51.56
42169;BME280;27838;43.858;25.974;2023-12-28T07:18:17;102269.00;;;10.20;51.60
42169;BME280;27838;43.858;25.974;2023-12-28T07:20:43;102268.97;;;10.18;51.29
42169;BME280;27838;43.858;25.974;2023-12-28T07:23:10;102275.56;;;10.06;51.16
42169;BME280;27838;43.858;25.974;2023-12-28T07:25:36;102272.69;;;9.95;51.17
42169;BME280;27838;43.858;25.974;2023-12-28T07:28:03;102266.63;;;9.96;51.68
42169;BME280;27838;43.858;25.974;2023-12-28T07:30:30;102270.28;;;10.02;51.28
42169;BME280;27838;43.858;25.974;2023-12-28T07:32:56;102273.88;;;10.08;51.37
42169;BME280;27838;43.858;25.974;2023-12-28T07:35:23;102270.59;;;10.15;51.01
42169;BME280;27838;43.858;25.974;2023-12-28T07:37:50;102269.91;;;10.22;51.12
42169;BME280;27838;43.858;25.974;2023-12-28T07:40:16;102270.09;;;10.28;51.15
42169;BME280;27838;43.858;25.974;2023-12-28T07:42:43;102276.22;;;10.30;51.91
42169;BME280;27838;43.858;25.974;2023-12-28T07:45:09;102278.75;;;10.27;51.32
42169;BME280;27838;43.858;25.974;2023-12-28T07:47:36;102275.13;;;10.20;51.71
42169;BME280;27838;43.858;25.974;2023-12-28T07:50:03;102279.97;;;10.07;52.25
42169;BME280;27838;43.858;25.974;2023-12-28T07:52:29;102299.78;;;10.01;52.11
42169;BME280;27838;43.858;25.974;2023-12-28T07:54:56;102303.72;;;9.87;52.23
42169;BME280;27838;43.858;25.974;2023-12-28T07:57:23;102297.84;;;9.64;52.22
42169;BME280;27838;43.858;25.974;2023-12-28T07:59:50;102288.91;;;9.54;52.91
42169;BME280;27838;43.858;25.974;2023-12-28T08:02:16;102292.47;;;9.58;52.72
42169;BME280;27838;43.858;25.974;2023-12-28T08:04:43;102292.53;;;9.61;52.41
42169;BME280;27838;43.858;25.974;2023-12-28T08:07:09;102297.38;;;9.77;52.47
42169;BME280;27838;43.858;25.974;2023-12-28T08:09:36;102280.38;;;9.90;52.55
42169;BME280;27838;43.858;25.974;2023-12-28T08:12:03;102290.34;;;10.05;51.87
42169;BME280;27838;43.858;25.974;2023-12-28T08:14:29;102295.00;;;10.17;51.27
42169;BME280;27838;43.858;25.974;2023-12-28T08:16:56;102290.13;;;10.29;51.07
42169;BME280;27838;43.858;25.974;2023-12-28T08:19:23;102293.94;;;10.42;50.70
42169;BME280;27838;43.858;25.974;2023-12-28T08:21:49;102283.69;;;10.50;50.77
42169;BME280;27838;43.858;25.974;2023-12-28T08:24:16;102284.00;;;10.62;50.39
42169;BME280;27838;43.858;25.974;2023-12-28T08:26:42;102283.25;;;10.66;50.25
42169;BME280;27838;43.858;25.974;2023-12-28T08:29:09;102272.13;;;10.73;50.04
42169;BME280;27838;43.858;25.974;2023-12-28T08:31:36;102271.34;;;10.77;50.17
42169;BME280;27838;43.858;25.974;2023-12-28T08:34:03;102270.59;;;10.82;50.21
42169;BME280;27838;43.858;25.974;2023-12-28T08:36:29;102270.91;;;10.97;50.04
42169;BME280;27838;43.858;25.974;2023-12-28T08:38:56;102280.66;;;11.04;49.57
42169;BME280;27838;43.858;25.974;2023-12-28T08:41:23;102282.66;;;11.16;49.69
42169;BME280;27838;43.858;25.974;2023-12-28T08:43:50;102283.94;;;11.35;49.11
42169;BME280;27838;43.858;25.974;2023-12-28T08:46:18;102285.22;;;11.54;48.93
42169;BME280;27838;43.858;25.974;2023-12-28T08:48:44;102281.28;;;11.73;48.10
42169;BME280;27838;43.858;25.974;2023-12-28T08:51:11;102278.00;;;11.83;47.81
42169;BME280;27838;43.858;25.974;2023-12-28T08:53:40;102266.78;;;11.89;47.65
42169;BME280;27838;43.858;25.974;2023-12-28T08:56:20;102266.16;;;12.01;47.21
42169;BME280;27838;43.858;25.974;2023-12-28T08:58:47;102262.09;;;12.17;47.19
42169;BME280;27838;43.858;25.974;2023-12-28T09:01:20;102255.50;;;12.39;47.37
42169;BME280;27838;43.858;25.974;2023-12-28T09:03:48;102258.41;;;12.56;46.53
42169;BME280;27838;43.858;25.974;2023-12-28T09:06:16;102250.00;;;12.77;46.49
42169;BME280;27838;43.858;25.974;2023-12-28T09:08:44;102242.34;;;12.89;45.80
42169;BME280;27838;43.858;25.974;2023-12-28T09:11:12;102239.94;;;13.04;45.26
42169;BME280;27838;43.858;25.974;2023-12-28T09:13:39;102228.66;;;13.10;45.37
42169;BME280;27838;43.858;25.974;2023-12-28T09:16:07;102226.13;;;13.15;44.81
42169;BME280;27838;43.858;25.974;2023-12-28T09:18:34;102221.09;;;13.30;44.45
42169;BME280;27838;43.858;25.974;2023-12-28T09:21:02;102214.25;;;13.41;44.24
42169;BME280;27838;43.858;25.974;2023-12-28T09:23:30;102214.38;;;13.52;44.04
42169;BME280;27838;43.858;25.974;2023-12-28T09:25:58;102219.81;;;13.69;43.98
42169;BME280;27838;43.858;25.974;2023-12-28T09:28:25;102206.03;;;13.87;43.63
42169;BME280;27838;43.858;25.974;2023-12-28T09:30:51;102204.44;;;14.00;42.95
42169;BME280;27838;43.858;25.974;2023-12-28T09:33:18;102206.97;;;13.91;43.30
42169;BME280;27838;43.858;25.974;2023-12-28T09:35:44;102182.44;;;13.87;43.28
42169;BME280;27838;43.858;25.974;2023-12-28T09:38:11;102187.81;;;14.00;43.16
42169;BME280;27838;43.858;25.974;2023-12-28T09:40:38;102185.28;;;14.10;42.83
42169;BME280;27838;43.858;25.974;2023-12-28T09:43:15;102186.22;;;14.19;42.38
42169;BME280;27838;43.858;25.974;2023-12-28T09:45:47;102180.16;;;14.26;42.54
42169;BME280;27838;43.858;25.974;2023-12-28T09:48:18;102172.34;;;14.33;42.29
42169;BME280;27838;43.858;25.974;2023-12-28T09:50:54;102173.28;;;14.43;42.21
42169;BME280;27838;43.858;25.974;2023-12-28T09:53:26;102170.72;;;14.51;42.64
42169;BME280;27838;43.858;25.974;2023-12-28T09:55:53;102166.41;;;14.58;42.57
42169;BME280;27838;43.858;25.974;2023-12-28T09:58:21;102161.28;;;14.70;42.35
42169;BME280;27838;43.858;25.974;2023-12-28T10:00:49;102160.50;;;14.89;42.45
42169;BME280;27838;43.858;25.974;2023-12-28T10:03:17;102155.31;;;15.05;41.74
42169;BME280;27838;43.858;25.974;2023-12-28T10:05:44;102143.09;;;15.16;41.00
42169;BME280;27838;43.858;25.974;2023-12-28T10:08:12;102152.75;;;15.26;41.33
42169;BME280;27838;43.858;25.974;2023-12-28T10:10:39;102148.41;;;15.41;40.72
42169;BME280;27838;43.858;25.974;2023-12-28T10:13:07;102144.94;;;15.48;40.61
42169;BME280;27838;43.858;25.974;2023-12-28T10:15:35;102141.44;;;15.57;39.99
42169;BME280;27838;43.858;25.974;2023-12-28T10:18:03;102123.94;;;15.65;40.17
42169;BME280;27838;43.858;25.974;2023-12-28T10:20:30;102125.69;;;15.58;39.94
42169;BME280;27838;43.858;25.974;2023-12-28T10:23:00;102118.69;;;15.56;40.35
42169;BME280;27838;43.858;25.974;2023-12-28T10:25:28;102106.44;;;15.64;40.51
42169;BME280;27838;43.858;25.974;2023-12-28T10:27:55;102101.19;;;15.72;40.36
42169;BME280;27838;43.858;25.974;2023-12-28T10:30:21;102103.84;;;15.76;40.75
42169;BME280;27838;43.858;25.974;2023-12-28T10:32:48;102086.31;;;15.77;40.58
42169;BME280;27838;43.858;25.974;2023-12-28T10:35:15;102089.78;;;15.70;40.40
42169;BME280;27838;43.858;25.974;2023-12-28T10:37:42;102088.91;;;15.67;40.64
42169;BME280;27838;43.858;25.974;2023-12-28T10:40:14;102084.56;;;15.79;41.06
42169;BME280;27838;43.858;25.974;2023-12-28T10:42:59;102088.94;;;16.01;40.45
42169;BME280;27838;43.858;25.974;2023-12-28T10:45:32;102084.53;;;16.16;40.13
42169;BME280;27838;43.858;25.974;2023-12-28T10:48:06;102067.84;;;16.26;39.84
42169;BME280;27838;43.858;25.974;2023-12-28T10:50:49;102060.78;;;16.40;39.63
42169;BME280;27838;43.858;25.974;2023-12-28T10:58:49;102027.38;;;16.67;38.77
42169;BME280;27838;43.858;25.974;2023-12-28T11:01:22;102028.19;;;16.77;38.90
42169;BME280;27838;43.858;25.974;2023-12-28T11:04:01;102021.19;;;16.74;39.00
42169;BME280;27838;43.858;25.974;2023-12-28T11:06:30;102019.44;;;16.76;38.96
42169;BME280;27838;43.858;25.974;2023-12-28T11:08:58;102027.28;;;16.87;39.02
42169;BME280;27838;43.858;25.974;2023-12-28T11:11:26;102022.03;;;16.84;38.63
42169;BME280;27838;43.858;25.974;2023-12-28T11:13:55;102008.91;;;16.76;38.71
42169;BME280;27838;43.858;25.974;2023-12-28T11:16:22;102015.91;;;16.87;38.97
42169;BME280;27838;43.858;25.974;2023-12-28T11:18:51;102005.38;;;16.87;38.72
42169;BME280;27838;43.858;25.974;2023-12-28T11:21:18;102000.94;;;16.95;38.92
42169;BME280;27838;43.858;25.974;2023-12-28T11:23:45;101998.22;;;17.07;38.62
42169;BME280;27838;43.858;25.974;2023-12-28T11:26:20;101998.16;;;17.12;38.52
42169;BME280;27838;43.858;25.974;2023-12-28T11:28:47;102003.41;;;17.15;38.19
42169;BME280;27838;43.858;25.974;2023-12-28T11:31:18;102013.97;;;17.15;38.13
42169;BME280;27838;43.858;25.974;2023-12-28T11:33:50;102003.50;;;17.07;38.26
42169;BME280;27838;43.858;25.974;2023-12-28T11:36:31;102005.34;;;16.90;38.55
42169;BME280;27838;43.858;25.974;2023-12-28T11:39:03;102000.97;;;16.81;38.40
42169;BME280;27838;43.858;25.974;2023-12-28T11:41:33;101995.72;;;16.78;38.88
42169;BME280;27838;43.858;25.974;2023-12-28T11:44:05;101995.69;;;16.92;38.65
42169;BME280;27838;43.858;25.974;2023-12-28T11:46:32;101993.00;;;16.98;38.46
42169;BME280;27838;43.858;25.974;2023-12-28T11:49:05;101989.50;;;16.93;38.44
42169;BME280;27838;43.858;25.974;2023-12-28T11:51:33;101976.38;;;16.90;38.57
42169;BME280;27838;43.858;25.974;2023-12-28T11:54:01;101980.75;;;16.94;38.73
42169;BME280;27838;43.858;25.974;2023-12-28T11:56:29;101979.03;;;16.87;38.66
42169;BME280;27838;43.858;25.974;2023-12-28T11:58:57;101978.19;;;16.85;38.69
42169;BME280;27838;43.858;25.974;2023-12-28T12:01:24;101970.31;;;16.72;38.75
42169;BME280;27838;43.858;25.974;2023-12-28T12:03:50;101967.72;;;16.65;39.00
42169;BME280;27838;43.858;25.974;2023-12-28T12:06:17;101973.88;;;16.59;39.09
42169;BME280;27838;43.858;25.974;2023-12-28T12:08:45;101962.50;;;16.58;39.54
42169;BME280;27838;43.858;25.974;2023-12-28T12:11:12;101962.50;;;16.60;39.35
42169;BME280;27838;43.858;25.974;2023-12-28T12:13:39;101952.81;;;16.62;39.26
42169;BME280;27838;43.858;25.974;2023-12-28T12:16:06;101948.41;;;16.69;39.10
42169;BME280;27838;43.858;25.974;2023-12-28T12:18:33;101948.34;;;16.73;38.93
42169;BME280;27838;43.858;25.974;2023-12-28T12:20:59;101937.81;;;16.72;39.15
42169;BME280;27838;43.858;25.974;2023-12-28T12:23:27;101938.72;;;16.69;38.88
42169;BME280;27838;43.858;25.974;2023-12-28T12:25:54;101937.88;;;16.69;39.16
42169;BME280;27838;43.858;25.974;2023-12-28T12:28:20;101934.31;;;16.71;38.93
42169;BME280;27838;43.858;25.974;2023-12-28T12:30:54;101929.06;;;16.73;38.53
42169;BME280;27838;43.858;25.974;2023-12-28T12:33:22;101924.66;;;16.76;38.42
42169;BME280;27838;43.858;25.974;2023-12-28T12:35:50;101921.13;;;16.77;38.63
42169;BME280;27838;43.858;25.974;2023-12-28T12:38:17;101920.25;;;16.77;38.37
42169;BME280;27838;43.858;25.974;2023-12-28T12:40:44;101929.00;;;16.79;38.87
42169;BME280;27838;43.858;25.974;2023-12-28T12:43:10;101918.50;;;16.76;38.94
42169;BME280;27838;43.858;25.974;2023-12-28T12:45:37;101923.81;;;16.71;38.85
42169;BME280;27838;43.858;25.974;2023-12-28T12:48:04;101923.81;;;16.70;38.85
42169;BME280;27838;43.858;25.974;2023-12-28T12:50:32;101920.31;;;16.66;38.77